Time;durP1;ratioP1;P1;durP2;ratioP2;P2;SDS_P1;SDS_P2;PMS_P1;PMS_P2;Temp;Humidity;BMP_temperature;BMP_pressure;BME280_temperature;BME280_humidity;BME280_pressure;Samples;Min_cycle;Max_cycle;Signal;HPM_P1;HPM_P2
2023/04/23 00:01:01;;;;;;;107.00;37.03;;;;;;;6.49;100.00;100664.22;4955225;28;20032;-90
2023/04/23 00:03:27;;;;;;;96.82;35.55;;;;;;;6.40;100.00;100650.47;4963342;28;20019;-91
2023/04/23 00:05:56;;;;;;;103.70;36.70;;;;;;;6.43;100.00;100658.00;4960692;28;20107;-90
2023/04/23 00:08:22;;;;;;;101.82;35.95;;;;;;;6.34;100.00;100640.78;4954255;28;20442;-91
2023/04/23 00:10:47;;;;;;;105.90;37.03;;;;;;;6.35;100.00;100650.38;4952021;28;20028;-91
2023/04/23 00:13:13;;;;;;;97.75;35.45;;;;;;;6.35;100.00;100647.72;4954349;28;20031;-91
2023/04/23 00:15:39;;;;;;;113.67;38.37;;;;;;;6.35;100.00;100645.06;4954336;28;20041;-90
2023/04/23 00:18:06;;;;;;;100.57;37.40;;;;;;;6.34;100.00;100643.44;4957274;28;20085;-92
2023/04/23 00:20:33;;;;;;;103.13;36.50;;;;;;;6.23;100.00;100621.13;4956010;28;20027;-90
2023/04/23 00:23:00;;;;;;;105.82;37.22;;;;;;;6.27;100.00;100632.91;4938069;28;20066;-90
2023/04/23 00:25:25;;;;;;;105.33;35.33;;;;;;;6.31;100.00;100644.69;4974929;28;20065;-90
2023/04/23 00:27:51;;;;;;;107.93;37.40;;;;;;;6.17;100.00;100611.41;4961210;29;20283;-90
2023/04/23 00:30:17;;;;;;;98.40;34.17;;;;;;;6.29;100.00;100633.50;4957356;29;20095;-90
2023/04/23 00:32:43;;;;;;;98.23;35.77;;;;;;;6.22;100.00;100628.28;4980815;28;20293;-90
2023/04/23 00:35:09;;;;;;;101.20;37.08;;;;;;;6.23;100.00;100621.13;4961589;28;20037;-90
2023/04/23 00:37:34;;;;;;;109.88;37.08;;;;;;;6.27;100.00;100632.91;4977688;28;20035;-90
2023/04/23 00:39:59;;;;;;;115.63;40.00;;;;;;;6.33;100.00;100634.63;4964688;29;20107;-91
2023/04/23 00:42:25;;;;;;;119.53;38.67;;;;;;;6.30;100.00;100626.31;4958713;28;20039;-92
2023/04/23 00:44:52;;;;;;;101.22;35.15;;;;;;;6.19;100.00;100611.97;4958381;28;20038;-91
2023/04/23 00:47:19;;;;;;;89.97;33.03;;;;;;;6.14;100.00;100603.88;4958050;28;20027;-93
2023/04/23 00:49:45;;;;;;;100.50;34.58;;;;;;;6.22;100.00;100622.94;4956424;29;20131;-90
2023/04/23 00:52:10;;;;;;;102.80;36.80;;;;;;;6.21;100.00;100618.66;4959552;28;20058;-89
2023/04/23 00:54:35;;;;;;;113.97;37.97;;;;;;;6.22;100.00;100619.50;4956660;28;20042;-91
2023/04/23 00:57:02;;;;;;;113.93;37.90;;;;;;;6.28;100.00;100612.44;4949448;29;20366;-91
2023/04/23 00:59:30;;;;;;;112.63;38.08;;;;;;;6.28;100.00;100617.75;4955069;28;20043;-91
2023/04/23 01:01:56;;;;;;;105.17;36.17;;;;;;;6.21;100.00;100608.03;4955579;28;20031;-91
2023/04/23 01:04:26;;;;;;;104.90;35.40;;;;;;;6.19;100.00;100610.13;4958309;28;20271;-91
2023/04/23 01:06:52;;;;;;;111.07;37.58;;;;;;;6.23;100.00;100594.50;4967119;28;20491;-91
2023/04/23 01:09:17;;;;;;;120.93;40.67;;;;;;;6.20;100.00;100593.13;4955282;28;20059;-90
2023/04/23 01:11:45;;;;;;;106.00;35.53;;;;;;;6.24;100.00;100590.81;4954002;29;20062;-90
2023/04/23 01:14:11;;;;;;;112.93;39.33;;;;;;;6.23;100.00;100583.88;4953849;28;20031;-90
2023/04/23 01:16:37;;;;;;;100.30;35.77;;;;;;;6.29;100.00;100592.75;4955552;29;20558;-92
2023/04/23 01:19:05;;;;;;;109.55;34.80;;;;;;;6.29;100.00;100592.75;4937922;28;20062;-92
2023/04/23 01:21:33;;;;;;;96.50;34.35;;;;;;;6.24;100.00;100582.00;4953598;28;20042;-92
2023/04/23 01:23:58;;;;;;;98.93;34.63;;;;;;;6.21;100.00;100581.41;4948082;28;20030;-92
2023/04/23 01:26:25;;;;;;;94.13;33.93;;;;;;;6.27;100.00;100584.19;4975899;28;20043;-94
2023/04/23 01:28:51;;;;;;;100.68;36.03;;;;;;;6.19;100.00;100574.72;4984568;28;20031;-91
2023/04/23 01:31:17;;;;;;;100.03;34.45;;;;;;;6.20;100.00;100577.16;4956588;28;20042;-91
2023/04/23 01:33:43;;;;;;;104.13;36.40;;;;;;;6.30;100.00;100589.06;4964224;29;20035;-90
2023/04/23 01:36:09;;;;;;;101.60;36.20;;;;;;;6.21;100.00;100581.41;4960600;29;20023;-91
2023/04/23 01:38:37;;;;;;;110.60;38.25;;;;;;;6.31;100.00;100585.34;4955437;28;20047;-91
2023/04/23 01:41:03;;;;;;;106.70;36.13;;;;;;;6.32;100.00;100592.28;4954958;28;20380;-91
2023/04/23 01:43:30;;;;;;;111.80;39.03;;;;;;;6.28;100.00;100581.31;4954996;29;20174;-92
2023/04/23 01:45:56;;;;;;;94.13;35.20;;;;;;;6.22;100.00;100574.25;4953655;28;20047;-92
2023/04/23 01:48:23;;;;;;;103.17;36.93;;;;;;;6.21;100.00;100570.78;4951134;28;20298;-91
2023/04/23 01:50:50;;;;;;;93.85;34.95;;;;;;;6.29;100.00;100571.47;4954775;28;20034;-91
2023/04/23 01:53:16;;;;;;;106.78;36.67;;;;;;;6.35;100.00;100578.53;4953914;29;20027;-91
2023/04/23 01:55:42;;;;;;;102.97;37.97;;;;;;;6.39;100.00;100576.97;4954692;29;20145;-91
2023/04/23 01:58:08;;;;;;;105.35;37.75;;;;;;;6.31;100.00;100569.38;4953082;28;20028;-91
2023/04/23 02:00:33;;;;;;;107.43;38.57;;;;;;;6.44;100.00;100584.28;4954810;28;20031;-91
2023/04/23 02:02:58;;;;;;;96.40;36.93;;;;;;;6.34;100.00;100558.28;4935129;29;20039;-91
2023/04/23 02:05:27;;;;;;;92.87;34.40;;;;;;;6.40;100.00;100569.81;4954769;29;20035;-91
2023/04/23 02:07:52;;;;;;;92.65;33.25;;;;;;;6.38;100.00;100570.06;4954879;28;20086;-91
2023/04/23 02:10:19;;;;;;;93.93;34.83;;;;;;;6.42;100.00;100581.84;4954555;28;20023;-91
2023/04/23 02:12:45;;;;;;;95.07;36.17;;;;;;;6.39;100.00;100579.66;4955149;28;20031;-91
2023/04/23 02:15:11;;;;;;;89.97;34.72;;;;;;;6.31;100.00;100570.19;4955477;28;20031;-91
2023/04/23 02:17:38;;;;;;;89.20;35.00;;;;;;;6.27;100.00;100561.06;4937409;29;20036;-91
2023/04/23 02:20:08;;;;;;;84.38;32.72;;;;;;;6.29;100.00;100571.47;4921164;29;20039;-91
2023/04/23 02:22:35;;;;;;;88.18;35.33;;;;;;;6.27;100.00;100558.41;4954438;28;20015;-91
2023/04/23 02:25:01;;;;;;;82.28;32.72;;;;;;;6.21;100.00;100554.03;4936659;29;20122;-91
2023/04/23 02:27:26;;;;;;;86.63;34.27;;;;;;;6.19;100.00;100556.09;4953193;28;20123;-91
2023/04/23 02:29:52;;;;;;;93.87;36.03;;;;;;;6.27;100.00;100563.72;4945279;28;20031;-91
2023/04/23 02:32:17;;;;;;;85.55;33.97;;;;;;;6.30;100.00;100563.22;4955581;28;20031;-91
2023/04/23 02:34:43;;;;;;;87.70;33.80;;;;;;;6.31;100.00;100558.75;4962042;28;20039;-91
2023/04/23 02:37:08;;;;;;;101.85;40.58;;;;;;;6.38;100.00;100556.75;4952834;29;20483;-90
2023/04/23 02:39:34;;;;;;;90.40;34.17;;;;;;;6.53;100.00;100571.41;4952304;28;20110;-91
2023/04/23 02:42:00;;;;;;;93.90;33.93;;;;;;;6.58;100.00;100563.50;4936575;29;20031;-91
2023/04/23 02:44:26;;;;;;;91.83;34.90;;;;;;;6.59;100.00;100565.94;4956143;28;20346;-91
2023/04/23 02:46:51;;;;;;;80.93;31.73;;;;;;;6.48;100.00;100553.50;4973833;28;20035;-91
2023/04/23 02:49:19;;;;;;;71.33;30.37;;;;;;;6.49;100.00;100571.88;4954067;29;20297;-92
2023/04/23 02:51:44;;;;;;;70.22;30.70;;;;;;;6.46;100.00;100564.34;4960944;28;20041;-91
2023/04/23 02:54:10;;;;;;;80.18;32.10;;;;;;;6.40;100.00;100553.84;4966177;28;20035;-91
2023/04/23 02:56:35;;;;;;;64.23;27.57;;;;;;;6.36;100.00;100564.97;4953451;29;20376;-92
2023/04/23 02:59:01;;;;;;;69.87;28.80;;;;;;;6.30;100.00;100551.78;4953152;28;20471;-93
2023/04/23 03:01:26;;;;;;;70.85;31.00;;;;;;;6.36;100.00;100561.50;4952546;28;20023;-92
2023/04/23 03:03:53;;;;;;;78.27;31.53;;;;;;;6.27;100.00;100546.94;4953258;29;20035;-92
2023/04/23 03:06:18;;;;;;;73.77;29.47;;;;;;;6.42;100.00;100565.88;4954649;29;20035;-94
2023/04/23 03:08:43;;;;;;;74.77;29.87;;;;;;;6.47;100.00;100563.31;4952779;28;20321;-91
2023/04/23 03:11:09;;;;;;;74.80;30.47;;;;;;;6.56;100.00;100554.97;4945755;29;20120;-90
2023/04/23 03:13:34;;;;;;;78.90;31.03;;;;;;;6.62;100.00;100551.34;4957847;28;20472;-90
2023/04/23 03:15:59;;;;;;;70.13;29.30;;;;;;;6.59;100.00;100539.31;4952923;28;20063;-90
2023/04/23 03:18:25;;;;;;;70.33;29.23;;;;;;;6.63;100.00;100540.47;4952878;29;20043;-91
2023/04/23 03:20:50;;;;;;;77.17;29.23;;;;;;;6.64;100.00;100541.25;4953922;28;20294;-92
2023/04/23 03:23:15;;;;;;;62.93;28.23;;;;;;;6.54;100.00;100520.56;4959037;28;20074;-91
2023/04/23 03:25:41;;;;;;;60.17;26.93;;;;;;;6.58;100.00;100537.69;4942584;29;20034;-91
2023/04/23 03:28:06;;;;;;;63.70;28.70;;;;;;;6.54;100.00;100535.75;4962919;28;20035;-91
2023/04/23 03:30:32;;;;;;;60.33;26.20;;;;;;;6.35;100.00;100518.09;4959614;29;20295;-91
2023/04/23 03:33:01;;;;;;;54.43;24.97;;;;;;;6.46;100.00;100539.59;4960500;28;20047;-92
2023/04/23 03:35:26;;;;;;;57.60;25.65;;;;;;;6.49;100.00;100541.78;4970499;29;20034;-91
2023/04/23 03:37:51;;;;;;;60.70;27.37;;;;;;;6.48;100.00;100516.22;4968850;28;20024;-92
2023/04/23 03:40:19;;;;;;;69.10;27.70;;;;;;;6.67;100.00;100540.78;4972578;28;20485;-93
2023/04/23 03:42:44;;;;;;;69.00;28.55;;;;;;;6.71;100.00;100538.44;4971459;28;20111;-90
2023/04/23 03:45:10;;;;;;;65.18;27.05;;;;;;;6.71;100.00;100535.78;4961223;28;20023;-90
2023/04/23 03:47:35;;;;;;;67.23;28.03;;;;;;;6.74;100.00;100529.97;4945090;29;20042;-91
2023/04/23 03:50:01;;;;;;;67.85;28.45;;;;;;;6.82;100.00;100543.72;4967649;28;20031;-91
2023/04/23 03:52:26;;;;;;;69.20;29.23;;;;;;;6.84;100.00;100534.69;4968766;28;20083;-91
2023/04/23 03:54:52;;;;;;;69.03;28.70;;;;;;;6.97;100.00;100542.38;4947129;29;20027;-91
2023/04/23 03:57:17;;;;;;;62.37;27.77;;;;;;;7.00;100.00;100539.22;4967132;28;20038;-91
2023/04/23 03:59:42;;;;;;;63.47;26.75;;;;;;;6.98;100.00;100520.00;4950325;29;20051;-91
2023/04/23 04:02:07;;;;;;;55.87;25.43;;;;;;;7.10;100.00;100523.41;4949991;29;20036;-91
2023/04/23 04:04:33;;;;;;;61.00;28.77;;;;;;;7.19;100.00;100539.00;4966308;28;20030;-92
2023/04/23 04:06:59;;;;;;;56.63;26.27;;;;;;;7.23;100.00;100548.13;4966651;28;20027;-89
2023/04/23 04:09:25;;;;;;;51.80;24.52;;;;;;;7.21;100.00;100544.91;4963735;29;20008;-92
2023/04/23 04:11:52;;;;;;;55.65;25.52;;;;;;;7.11;100.00;100530.38;4969600;28;20069;-90
2023/04/23 04:14:18;;;;;;;51.65;25.15;;;;;;;7.09;100.00;100520.97;4961364;28;20080;-91
2023/04/23 04:16:43;;;;;;;50.10;25.27;;;;;;;7.18;100.00;100542.72;4971424;28;20043;-93
2023/04/23 04:19:09;;;;;;;46.07;23.27;;;;;;;7.12;100.00;100536.50;4946048;29;20023;-91
2023/04/23 04:21:34;;;;;;;48.97;23.65;;;;;;;7.13;100.00;100543.44;4954018;28;20489;-89
2023/04/23 04:24:03;;;;;;;44.77;22.00;;;;;;;7.12;100.00;100547.16;4933221;29;20066;-89
2023/04/23 04:26:31;;;;;;;46.90;21.67;;;;;;;7.08;100.00;100551.34;4937310;28;20039;-90
2023/04/23 04:28:57;;;;;;;41.70;21.77;;;;;;;7.03;100.00;100549.41;4958737;28;20029;-92
2023/04/23 04:31:22;;;;;;;41.50;20.80;;;;;;;6.92;100.00;100543.09;4952187;28;20024;-90
2023/04/23 04:33:47;;;;;;;42.97;23.17;;;;;;;6.99;100.00;100555.47;4957668;28;20035;-89
2023/04/23 04:36:13;;;;;;;47.63;23.77;;;;;;;6.90;100.00;100542.53;4955741;28;20026;-90
2023/04/23 04:38:39;;;;;;;45.83;22.30;;;;;;;6.89;100.00;100548.91;4955589;28;20046;-91
2023/04/23 04:41:05;;;;;;;45.97;24.15;;;;;;;7.00;100.00;100551.75;4937995;28;20495;-90
2023/04/23 04:43:31;;;;;;;46.03;22.05;;;;;;;6.91;100.00;100538.81;4954917;28;20023;-91
2023/04/23 04:45:57;;;;;;;48.65;23.25;;;;;;;6.96;100.00;100535.41;4955376;28;20494;-90
2023/04/23 04:48:23;;;;;;;46.47;23.00;;;;;;;7.02;100.00;100537.13;4955147;29;20027;-91
2023/04/23 04:50:49;;;;;;;53.57;22.90;;;;;;;7.02;100.00;100539.78;4938376;29;20094;-90
2023/04/23 04:53:15;;;;;;;50.47;22.48;;;;;;;6.97;100.00;100537.03;4939213;29;20126;-91
2023/04/23 04:55:40;;;;;;;44.23;22.10;;;;;;;7.02;100.00;100552.31;4955148;28;20062;-91
2023/04/23 04:58:05;;;;;;;44.75;21.65;;;;;;;6.91;100.00;100540.69;4967265;28;20034;-89
2023/04/23 05:00:31;;;;;;;40.47;20.77;;;;;;;6.80;100.00;100529.84;4974710;28;20031;-89
2023/04/23 05:02:57;;;;;;;45.42;22.08;;;;;;;6.87;100.00;100545.66;4974138;28;20033;-91
2023/04/23 05:05:24;;;;;;;42.20;21.50;;;;;;;6.88;100.00;100546.47;4955649;28;20687;-91
2023/04/23 05:07:50;;;;;;;45.10;21.53;;;;;;;6.85;100.00;100546.97;4954598;28;20039;-90
2023/04/23 05:10:15;;;;;;;44.08;20.92;;;;;;;6.82;100.00;100535.72;4937873;28;20031;-85
2023/04/23 05:12:41;;;;;;;48.13;22.30;;;;;;;6.89;100.00;100542.78;4954712;28;20035;-86
2023/04/23 05:15:14;;;;;;;49.47;22.37;;;;;;;6.96;100.00;100538.91;4954569;29;20023;-85
2023/04/23 05:17:40;;;;;;;51.97;22.85;;;;;;;7.20;100.00;100553.94;4952009;28;20035;-84
2023/04/23 05:20:09;;;;;;;60.58;26.17;;;;;;;7.30;100.00;100539.97;4936584;29;20058;-84
2023/04/23 05:22:35;;;;;;;53.17;24.98;;;;;;;7.52;100.00;100542.69;4953492;28;20074;-85
2023/04/23 05:25:01;;;;;;;57.78;24.83;;;;;;;7.68;100.00;100555.19;4954236;28;20430;-86
2023/04/23 05:27:26;;;;;;;50.53;24.50;;;;;;;7.80;100.00;100557.75;4954810;28;20035;-86
2023/04/23 05:29:51;;;;;;;52.30;27.23;;;;;;;7.84;100.00;100547.44;4952972;28;20023;-86
2023/04/23 05:32:17;;;;;;;44.30;24.13;;;;;;;7.90;100.00;100549.09;4954695;29;20043;-86
2023/04/23 05:34:42;;;;;;;46.53;24.10;;;;;;;8.09;100.00;100562.97;4953834;28;20106;-84
2023/04/23 05:37:08;;;;;;;41.40;20.93;;;;;;;8.15;100.00;100564.63;4963401;28;20034;-85
2023/04/23 05:39:34;;;;;;;36.47;20.83;;;;;;;8.20;100.00;100571.91;4973289;28;20030;-84
2023/04/23 05:42:01;;;;;;;39.95;20.85;;;;;;;8.19;100.00;100559.63;4968931;28;20048;-85
2023/04/23 05:44:27;;;;;;;34.77;19.77;;;;;;;8.27;100.00;100567.19;4953709;28;20099;-84
2023/04/23 05:46:52;;;;;;;35.67;19.53;;;;;;;8.19;100.00;100552.41;4937904;29;20446;-85
2023/04/23 05:49:18;;;;;;;35.90;19.50;;;;;;;8.22;100.00;100559.09;4953309;28;20376;-84
2023/04/23 05:51:43;;;;;;;35.10;19.53;;;;;;;8.21;100.00;100560.19;4953136;28;20034;-84
2023/04/23 05:54:08;;;;;;;31.53;17.87;;;;;;;8.14;100.00;100536.31;4953218;28;20165;-84
2023/04/23 05:56:34;;;;;;;31.73;17.60;;;;;;;8.31;100.00;100552.28;4945997;28;20964;-86
2023/04/23 05:58:59;;;;;;;33.80;19.07;;;;;;;8.39;100.00;100543.03;4955662;28;20058;-86
2023/04/23 06:01:24;;;;;;;32.43;18.07;;;;;;;8.50;100.00;100552.00;4957072;28;20039;-85
2023/04/23 06:03:50;;;;;;;31.83;18.27;;;;;;;8.53;100.00;100554.16;4958094;29;20055;-86
2023/04/23 06:06:15;;;;;;;31.90;18.43;;;;;;;8.57;100.00;100559.81;4955593;28;20118;-86
2023/04/23 06:08:40;;;;;;;33.60;18.17;;;;;;;8.51;100.00;100544.78;4953346;28;20366;-86
2023/04/23 06:11:06;;;;;;;32.63;19.57;;;;;;;8.59;100.00;100549.69;4954232;29;20033;-86
2023/04/23 06:13:32;;;;;;;32.70;17.67;;;;;;;8.69;100.00;100563.13;4950582;29;20078;-85
2023/04/23 06:15:57;;;;;;;36.03;19.30;;;;;;;8.68;100.00;100534.81;4944813;29;20030;-86
2023/04/23 06:18:23;;;;;;;26.50;16.43;;;;;;;8.72;100.00;100540.47;4961978;29;20011;-86
2023/04/23 06:20:50;;;;;;;27.92;17.08;;;;;;;8.78;100.00;100532.25;4971862;28;20289;-84
2023/04/23 06:23:16;;;;;;;31.50;17.23;;;;;;;8.89;100.00;100546.50;4974014;28;20037;-84
2023/04/23 06:25:42;;;;;;;31.70;16.90;;;;;;;8.94;100.00;100535.88;4959535;28;20055;-87
2023/04/23 06:28:07;;;;;;;28.52;17.15;;;;;;;8.89;100.00;100514.44;4959315;28;20031;-85
2023/04/23 06:30:33;;;;;;;29.47;17.63;;;;;;;9.04;100.00;100531.66;4956867;28;20100;-84
2023/04/23 06:32:58;;;;;;;26.92;16.23;;;;;;;9.07;100.00;100525.81;4935592;29;20031;-85
2023/04/23 06:35:25;;;;;;;25.23;15.67;;;;;;;9.05;100.00;100515.34;4955172;29;20126;-85
2023/04/23 06:37:50;;;;;;;26.52;14.70;;;;;;;9.20;100.00;100521.91;4931104;28;20483;-85
2023/04/23 06:40:15;;;;;;;26.17;16.00;;;;;;;9.20;100.00;100514.69;4953591;28;20146;-87
2023/04/23 06:42:42;;;;;;;23.58;14.45;;;;;;;9.37;100.00;100529.78;4954327;28;20019;-89
2023/04/23 06:45:07;;;;;;;22.67;14.30;;;;;;;9.37;100.00;100505.69;4955990;28;20512;-88
2023/04/23 06:47:33;;;;;;;19.58;13.45;;;;;;;9.55;100.00;100531.25;4954784;28;20035;-86
2023/04/23 06:50:01;;;;;;;24.37;13.73;;;;;;;9.57;100.00;100523.78;4954267;28;20019;-87
2023/04/23 06:52:26;;;;;;;18.80;11.68;;;;;;;9.61;100.00;100527.50;4942501;28;20054;-86
2023/04/23 06:54:53;;;;;;;22.83;13.20;;;;;;;9.69;100.00;100526.22;4944276;28;20023;-87
2023/04/23 06:57:18;;;;;;;19.85;11.48;;;;;;;9.77;100.00;100523.06;4950695;28;20091;-85
2023/04/23 06:59:44;;;;;;;17.30;11.10;;;;;;;9.58;100.00;100479.09;4951777;23;20081;-85
2023/04/23 07:02:09;;;;;;;16.17;11.02;;;;;;;9.83;100.00;100505.16;4937256;28;20054;-86
2023/04/23 07:04:35;;;;;;;19.43;10.27;;;;;;;9.96;100.00;100530.66;4934504;29;20051;-86
2023/04/23 07:07:00;;;;;;;17.00;11.43;;;;;;;10.06;100.00;100519.97;4942586;28;20118;-85
2023/04/23 07:09:27;;;;;;;18.87;10.57;;;;;;;10.14;100.00;100529.38;4947255;29;20032;-85
2023/04/23 07:11:56;;;;;;;22.05;10.75;;;;;;;10.13;100.00;100509.84;4933502;29;20024;-86
2023/04/23 07:14:21;;;;;;;15.10;10.13;;;;;;;10.25;100.00;100501.59;4934392;29;20052;-86
2023/04/23 07:16:46;;;;;;;13.10;8.03;;;;;;;10.39;100.00;100512.66;4916569;29;20535;-85
2023/04/23 07:19:13;;;;;;;16.05;9.57;;;;;;;10.40;100.00;100508.06;4931387;29;20143;-85
2023/04/23 07:21:38;;;;;;;20.43;9.10;;;;;;;10.48;100.00;100509.44;4932915;29;20399;-85
2023/04/23 07:24:06;;;;;;;13.90;8.20;;;;;;;10.47;100.00;100499.78;4934044;29;20040;-85
2023/04/23 07:26:32;;;;;;;15.33;8.80;;;;;;;10.60;100.00;100516.16;4934200;29;20036;-85
2023/04/23 07:28:58;;;;;;;12.43;7.93;;;;;;;10.71;100.00;100510.81;4937398;29;20137;-85
2023/04/23 07:31:23;;;;;;;12.43;7.75;;;;;;;10.78;100.00;100514.03;4915910;29;20546;-85
2023/04/23 07:33:49;;;;;;;9.80;6.57;;;;;;;10.82;100.00;100516.97;4938483;29;20091;-87
2023/04/23 07:36:15;;;;;;;15.80;6.93;;;;;;;10.88;100.00;100503.31;4937493;29;20038;-86
2023/04/23 07:38:41;;;;;;;13.07;7.40;;;;;;;10.95;100.00;100508.44;4937624;29;20127;-86
2023/04/23 07:41:07;;;;;;;10.93;6.95;;;;;;;10.99;100.00;100498.75;4938313;28;20127;-86
2023/04/23 07:43:33;;;;;;;14.93;6.70;;;;;;;11.15;100.00;100504.09;4936367;29;20111;-86
2023/04/23 07:45:59;;;;;;;16.67;6.93;;;;;;;11.26;100.00;100500.38;4943161;29;20300;-86
2023/04/23 07:48:24;;;;;;;11.30;6.43;;;;;;;11.34;100.00;100504.38;4936626;29;20559;-85
2023/04/23 07:50:50;;;;;;;12.77;6.43;;;;;;;11.42;100.00;100516.44;4944683;28;20092;-86
2023/04/23 07:53:15;;;;;;;10.37;6.00;;;;;;;11.48;100.00;100499.25;4937527;29;20028;-86
2023/04/23 07:55:40;;;;;;;11.10;5.70;;;;;;;11.58;100.00;100509.16;4910894;29;20032;-87
2023/04/23 07:58:06;;;;;;;14.73;5.90;;;;;;;11.60;100.00;100496.25;4922555;29;20039;-86
2023/04/23 08:00:31;;;;;;;12.57;5.50;;;;;;;11.72;100.00;100494.09;4939643;29;20985;-86
2023/04/23 08:02:57;;;;;;;12.20;5.00;;;;;;;11.84;100.00;100501.03;4943070;29;20023;-86
2023/04/23 08:05:22;;;;;;;10.05;5.28;;;;;;;11.89;100.00;100501.00;4921534;29;20119;-85
2023/04/23 08:07:48;;;;;;;12.73;5.00;;;;;;;11.93;100.00;100505.56;4940899;29;20134;-86
2023/04/23 08:10:13;;;;;;;12.93;4.10;;;;;;;11.90;100.00;100486.50;4956243;28;20042;-87
2023/04/23 08:12:38;;;;;;;11.23;4.10;;;;;;;12.06;100.00;100489.94;4940848;29;20116;-86
2023/04/23 08:15:05;;;;;;;11.82;4.28;;;;;;;12.08;100.00;100485.91;4936556;29;20895;-86
2023/04/23 08:17:31;;;;;;;9.75;3.80;;;;;;;12.35;100.00;100490.06;4938274;29;20038;-87
2023/04/23 08:19:56;;;;;;;13.37;3.47;;;;;;;12.42;100.00;100477.13;4952089;23;20416;-87
2023/04/23 08:22:34;;;;;;;11.53;3.70;;;;;;;12.36;100.00;100447.91;4938263;29;20027;-88
2023/04/23 08:28:21;;;;;;;11.77;3.60;;;;;;;12.83;100.00;100478.72;4929749;29;20108;-86
2023/04/23 08:30:46;;;;;;;8.33;2.80;;;;;;;12.92;100.00;100470.84;4955897;23;20111;-86
2023/04/23 08:33:12;;;;;;;11.25;3.13;;;;;;;13.11;100.00;100468.28;4940247;29;20036;-86
2023/04/23 08:35:40;;;;;;;10.60;3.00;;;;;;;13.28;100.00;100469.72;4944601;28;20534;-86
2023/04/23 08:38:05;;;;;;;10.90;3.40;;;;;;;13.40;100.00;100469.34;4946306;28;20117;-86
2023/04/23 08:40:31;;;;;;;8.73;2.80;;;;;;;13.46;100.00;100474.41;4956752;28;20579;-86
2023/04/23 08:43:01;;;;;;;9.18;3.00;;;;;;;13.51;100.00;100464.69;4948281;29;20035;-86
2023/04/23 08:45:28;;;;;;;11.40;2.40;;;;;;;13.71;100.00;100475.19;4942895;28;20543;-87
2023/04/23 08:47:58;;;;;;;11.23;2.80;;;;;;;13.91;100.00;100473.34;4937104;29;20031;-86
2023/04/23 08:50:24;;;;;;;7.30;2.35;;;;;;;14.04;100.00;100463.75;4950692;29;20048;-87
2023/04/23 08:52:54;;;;;;;8.88;2.33;;;;;;;14.30;100.00;100474.97;4936902;29;20024;-86
2023/04/23 08:55:22;;;;;;;11.00;2.33;;;;;;;14.48;100.00;100469.88;4940180;28;20046;-88
2023/04/23 08:57:48;;;;;;;6.88;2.25;;;;;;;14.34;100.00;100437.47;4955886;29;20066;-87
2023/04/23 09:00:16;;;;;;;6.60;1.90;;;;;;;14.61;100.00;100461.03;4942343;29;20071;-87
2023/04/23 09:02:43;;;;;;;8.07;2.83;;;;;;;14.89;100.00;100477.34;4937728;29;20027;-86
2023/04/23 09:05:14;;;;;;;10.40;2.33;;;;;;;15.11;100.00;100465.13;4936512;29;20035;-87
2023/04/23 09:07:40;;;;;;;8.63;1.95;;;;;;;15.40;97.72;100472.13;4937631;28;20035;-86
2023/04/23 09:10:10;;;;;;;8.27;2.10;;;;;;;15.50;93.05;100471.16;4929704;29;20028;-86
2023/04/23 09:12:37;;;;;;;5.78;1.75;;;;;;;15.55;90.38;100471.84;4943397;29;20039;-87
2023/04/23 09:15:09;;;;;;;5.75;1.90;;;;;;;15.38;88.75;100469.75;4949209;29;20413;-86
2023/04/23 09:17:38;;;;;;;11.77;2.35;;;;;;;15.42;91.96;100469.94;4936713;29;20487;-85
2023/04/23 09:20:10;;;;;;;7.65;1.90;;;;;;;15.68;92.91;100472.94;4936781;29;20028;-87
2023/04/23 09:22:51;;;;;;;8.67;1.80;;;;;;;15.81;86.39;100463.25;4963573;28;20047;-86
2023/04/23 09:25:19;;;;;;;6.80;1.83;;;;;;;15.89;85.98;100464.47;4950868;29;20298;-86
2023/04/23 09:27:46;;;;;;;7.47;1.55;;;;;;;16.10;87.39;100464.81;4958438;29;20099;-87
2023/04/23 09:30:12;;;;;;;8.18;1.83;;;;;;;16.24;82.77;100464.00;4990963;23;20051;-86
2023/04/23 09:32:40;;;;;;;7.68;1.77;;;;;;;16.35;83.42;100451.84;4936084;29;20114;-86
2023/04/23 09:35:12;;;;;;;11.05;2.10;;;;;;;16.41;80.28;100450.63;4937937;29;20035;-85
2023/04/23 09:37:41;;;;;;;8.05;2.00;;;;;;;16.50;80.48;100440.66;4940626;29;20054;-86
2023/04/23 09:40:09;;;;;;;7.22;2.05;;;;;;;16.36;75.81;100445.31;4913875;29;20099;-86
2023/04/23 09:42:36;;;;;;;9.27;1.53;;;;;;;16.32;77.40;100445.16;4920442;29;20080;-84
2023/04/23 09:45:07;;;;;;;6.30;1.80;;;;;;;16.17;76.01;100445.47;4893332;29;20342;-86
2023/04/23 09:47:50;;;;;;;4.10;1.45;;;;;;;16.38;79.99;100456.63;4907794;29;20520;-87
2023/04/23 09:50:15;;;;;;;4.25;1.33;;;;;;;16.40;71.06;100440.91;4928991;23;20103;-86
2023/04/23 09:52:46;;;;;;;9.23;1.60;;;;;;;16.33;71.79;100430.53;4939493;29;20024;-86
2023/04/23 09:55:36;;;;;;;4.45;1.30;;;;;;;16.40;75.24;100446.31;4926465;29;20028;-85
2023/04/23 09:58:14;;;;;;;7.97;1.60;;;;;;;16.67;73.74;100430.28;4922959;29;20031;-86
2023/04/23 10:00:40;;;;;;;6.00;1.60;;;;;;;16.91;73.13;100440.75;5009966;23;20059;-85
2023/04/23 10:03:08;;;;;;;6.72;1.23;;;;;;;17.15;71.09;100439.63;4920644;29;20083;-87
2023/04/23 10:05:39;;;;;;;9.00;1.70;;;;;;;17.31;71.02;100431.88;4920726;29;20399;-87
2023/04/23 10:08:07;;;;;;;6.57;1.23;;;;;;;17.51;69.87;100441.38;4901735;29;20392;-87
2023/04/23 10:10:34;;;;;;;8.07;1.57;;;;;;;17.68;69.58;100436.00;4898597;29;20622;-85
2023/04/23 10:13:00;;;;;;;7.78;2.08;;;;;;;17.69;68.04;100413.22;4919373;23;20039;-86
2023/04/23 10:15:27;;;;;;;6.53;1.40;;;;;;;18.19;69.03;100437.50;4956094;29;20038;-86
2023/04/23 10:17:54;;;;;;;8.82;1.90;;;;;;;18.19;67.23;100404.97;4955768;28;20046;-86
2023/04/23 10:20:32;;;;;;;4.35;1.60;;;;;;;18.26;68.04;100411.50;4930927;29;20171;-86
2023/04/23 10:23:06;;;;;;;5.82;1.83;;;;;;;18.42;67.55;100397.47;4937893;29;20118;-85
2023/04/23 10:25:32;;;;;;;5.07;2.00;;;;;;;18.61;65.64;100424.22;4940062;29;20046;-86
2023/04/23 10:27:59;;;;;;;6.37;1.87;;;;;;;18.91;66.72;100427.84;4937578;29;20322;-85
2023/04/23 10:30:25;;;;;;;5.82;1.45;;;;;;;18.87;66.61;100429.59;4954167;28;20105;-86
2023/04/23 10:32:55;;;;;;;6.03;1.63;;;;;;;18.89;63.04;100421.94;4954986;28;20480;-86
2023/04/23 10:35:20;;;;;;;5.95;1.65;;;;;;;18.96;64.79;100415.25;4953063;28;20127;-85
2023/04/23 10:37:47;;;;;;;6.27;1.77;;;;;;;18.76;63.24;100417.50;4941985;28;20041;-86
2023/04/23 10:40:15;;;;;;;7.32;2.20;;;;;;;18.36;64.27;100409.59;4949569;28;20038;-86
2023/04/23 10:42:42;;;;;;;4.88;1.50;;;;;;;18.37;66.32;100408.47;4956478;28;20046;-87
2023/04/23 10:45:19;;;;;;;6.68;1.65;;;;;;;18.54;65.59;100400.31;4949303;28;20051;-87
2023/04/23 10:47:47;;;;;;;8.82;1.90;;;;;;;18.53;65.36;100414.19;4969535;28;20053;-86
2023/04/23 10:50:24;;;;;;;6.47;1.53;;;;;;;18.39;65.67;100398.88;4940695;28;20055;-86
2023/04/23 10:52:52;;;;;;;6.30;2.00;;;;;;;18.56;65.97;100398.06;4974129;28;20304;-87
2023/04/23 10:55:25;;;;;;;5.90;1.80;;;;;;;18.74;62.77;100396.09;4915034;23;20080;-87
2023/04/23 10:57:56;;;;;;;5.65;1.60;;;;;;;19.19;64.61;100394.84;4927273;29;20085;-87
2023/04/23 11:00:21;;;;;;;8.65;1.85;;;;;;;19.47;62.10;100380.00;4917539;29;20028;-87
2023/04/23 11:02:47;;;;;;;3.47;1.30;;;;;;;19.78;62.87;100371.47;4917516;29;20060;-86
2023/04/23 11:05:12;;;;;;;3.88;1.50;;;;;;;20.20;61.01;100378.84;4917192;29;20030;-86
2023/04/23 11:07:38;;;;;;;7.20;1.90;;;;;;;20.00;59.13;100375.03;4919253;29;20036;-86
2023/04/23 11:10:12;;;;;;;3.30;1.60;;;;;;;19.90;58.64;100370.00;4918799;29;20028;-87
2023/04/23 11:12:39;;;;;;;5.47;1.80;;;;;;;19.82;58.71;100375.13;4919771;29;20347;-85